Time;durP1;ratioP1;P1;durP2;ratioP2;P2;SDS_P1;SDS_P2;PMS_P1;PMS_P2;Temp;Humidity;BMP_temperature;BMP_pressure;BME280_temperature;BME280_humidity;BME280_pressure;Samples;Min_cycle;Max_cycle;Signal;HPM_P1;HPM_P2
2021/04/09 00:01:52;;;;;;;11.65;5.55;;;5.50;98.50;;;;;;4954748;28;20566;-94
2021/04/09 00:04:36;;;;;;;5.38;4.88;;;5.50;98.60;;;;;;4967915;28;20114;-95
2021/04/09 00:07:29;;;;;;;7.03;5.68;;;5.50;98.70;;;;;;4915103;28;20548;-94
2021/04/09 00:10:46;;;;;;;;;;;;;;;;;;;;;
2021/04/09 00:13:49;;;;;;;;;;;;;;;;;;;;;
2021/04/09 00:16:39;;;;;;;;;;;;;;;;;;;;;
2021/04/09 00:23:12;;;;;;;8.68;5.35;;;5.40;99.20;;;;;;4928547;28;20208;-95
2021/04/09 00:26:14;;;;;;;;;;;;;;;;;;;;;
2021/04/09 00:30:22;;;;;;;;;;;;;;;;;;;;;
2021/04/09 00:32:44;;;;;;;11.10;6.00;;;5.40;99.40;;;;;;4796812;29;20045;-95
2021/04/09 00:35:50;;;;;;;;;;;;;;;;;;;;;
2021/04/09 00:38:58;;;;;;;8.57;5.90;;;5.40;99.60;;;;;;4810609;29;20429;-95
2021/04/09 00:42:08;;;;;;;7.20;5.68;;;5.40;99.60;;;;;;4790673;29;20042;-95
2021/04/09 00:45:15;;;;;;;;;;;;;;;;;;;;;
2021/04/09 00:48:59;;;;;;;11.27;6.25;;;5.40;99.80;;;;;;4768988;29;20098;-95
2021/04/09 00:51:35;;;;;;;8.65;5.57;;;5.40;99.90;;;;;;4803624;29;20050;-95
2021/04/09 00:54:43;;;;;;;8.20;5.53;;;5.40;99.90;;;;;;4758757;30;20121;-95
2021/04/09 00:57:54;;;;;;;9.88;5.95;;;5.40;99.90;;;;;;4780906;29;20112;-96
2021/04/09 01:00:43;;;;;;;;;;;5.40;99.90;;;;;;4861595;29;20061;-95
2021/04/09 01:03:25;;;;;;;8.73;5.30;;;5.40;99.90;;;;;;4895510;29;20033;-95
2021/04/09 01:06:11;;;;;;;10.75;6.60;;;5.40;99.90;;;;;;4886883;29;20115;-95
2021/04/09 01:08:59;;;;;;;;;;;;;;;;;;;;;
2021/04/09 01:11:39;;;;;;;;;;;;;;;;;;;;;
2021/04/09 01:14:27;;;;;;;10.65;5.72;;;5.40;99.90;;;;;;4882656;29;20557;-95
2021/04/09 01:17:42;;;;;;;9.15;5.40;;;5.40;99.90;;;;;;4883987;29;20426;-95
2021/04/09 01:20:32;;;;;;;8.48;5.15;;;5.40;99.90;;;;;;4860422;29;20115;-94
2021/04/09 01:23:43;;;;;;;;;;;;;;;;;;;;;
2021/04/09 01:26:41;;;;;;;9.18;5.20;;;5.40;99.90;;;;;;4854550;29;20064;-94
2021/04/09 01:29:39;;;;;;;12.68;5.63;;;5.40;99.90;;;;;;4882379;29;20497;-95
2021/04/09 01:32:41;;;;;;;8.00;5.53;;;5.50;99.90;;;;;;4855910;29;20044;-95
2021/04/09 01:35:56;;;;;;;;;;;;;;;;;;;;;
2021/04/09 01:39:27;;;;;;;11.23;5.95;;;5.50;99.90;;;;;;4845084;29;20111;-96
2021/04/09 01:42:23;;;;;;;7.95;5.90;;;5.50;99.90;;;;;;4767747;29;20044;-95
2021/04/09 01:45:17;;;;;;;;;;;;;;;;;;;;;
2021/04/09 01:48:13;;;;;;;;;;;;;;;;;;;;;
2021/04/09 01:51:23;;;;;;;11.63;5.47;;;5.40;99.90;;;;;;4796140;29;20143;-95
2021/04/09 01:54:20;;;;;;;10.30;5.90;;;5.40;99.90;;;;;;4800036;29;20053;-95
2021/04/09 01:57:30;;;;;;;;;;;;;;;;;;;;;
2021/04/09 02:00:56;;;;;;;10.18;6.38;;;5.30;99.90;;;;;;4802775;29;20049;-94
2021/04/09 02:04:30;;;;;;;11.80;5.80;;;5.30;99.90;;;;;;4773053;29;20051;-96
2021/04/09 02:11:21;;;;;;;;;;;;;;;;;;;;;
2021/04/09 02:14:32;;;;;;;;;;;;;;;;;;;;;
2021/04/09 02:17:17;;;;;;;;;;;;;;;;;;;;;
2021/04/09 02:19:51;;;;;;;9.32;5.40;;;5.10;99.90;;;;;;4802980;29;20042;-95
2021/04/09 02:23:17;;;;;;;;;;;;;;;;;;;;;
2021/04/09 02:25:44;;;;;;;8.45;6.05;;;5.10;99.90;;;;;;4855368;29;20143;-95
2021/04/09 02:31:50;;;;;;;6.75;5.78;;;4.90;99.90;;;;;;4835085;29;20056;-94
2021/04/09 02:34:29;;;;;;;9.10;6.45;;;4.90;99.90;;;;;;4845716;29;20080;-95
2021/04/09 02:37:53;;;;;;;;;;;;;;;;;;;;;
2021/04/09 02:40:59;;;;;;;7.28;5.03;;;4.80;99.90;;;;;;4758449;29;20498;-95
2021/04/09 02:43:47;;;;;;;9.75;6.03;;;4.80;99.90;;;;;;4785046;29;20111;-96
2021/04/09 02:50:44;;;;;;;;;;;;;;;;;;;;;
2021/04/09 02:53:38;;;;;;;10.18;5.97;;;4.80;99.70;;;;;;4732065;29;20050;-95
2021/04/09 02:56:25;;;;;;;;;;;;;;;;;;;;;
2021/04/09 05:22:40;;;;;;;8.35;5.05;;;3.70;98.90;;;;;;5060337;27;20404;-94
2021/04/09 05:34:04;;;;;;;;;;;;;;;;;;;;;
2021/04/09 05:57:00;;;;;;;;;;;;;;;;;;;;;
2021/04/09 06:11:05;;;;;;;;;;;;;;;;;;;;;
2021/04/09 06:17:19;;;;;;;7.50;5.70;;;4.60;99.90;;;;;;5746104;24;20091;-93
2021/04/09 06:20:02;;;;;;;8.10;4.55;;;4.70;99.90;;;;;;5754974;24;20055;-93
2021/04/09 06:22:46;;;;;;;10.60;4.40;;;4.80;99.90;;;;;;5753770;24;20030;-92
2021/04/09 06:26:45;;;;;;;;;;;;;;;;;;;;;
2021/04/09 06:43:14;;;;;;;;;;;;;;;;;;;;;
2021/04/09 06:46:10;;;;;;;12.63;5.20;;;5.60;99.90;;;;;;6080314;23;20022;-92
2021/04/09 06:49:17;;;;;;;18.25;5.20;;;5.70;99.90;;;;;;6017587;23;20018;-92
2021/04/09 06:51:58;;;;;;;19.42;5.85;;;5.80;99.90;;;;;;5981939;23;20011;-93
2021/04/09 06:55:27;;;;;;;;;;;;;;;;;;;;;
2021/04/09 06:58:31;;;;;;;29.38;6.60;;;6.10;99.90;;;;;;6038785;23;20512;-94
2021/04/09 07:01:22;;;;;;;24.13;6.72;;;6.20;99.90;;;;;;5892944;24;20472;-94
2021/04/09 07:04:24;;;;;;;;;;;;;;;;;;;;;
2021/04/09 07:07:42;;;;;;;17.35;5.65;;;6.40;99.90;;;;;;5907342;23;20043;-94
2021/04/09 07:10:58;;;;;;;;;;;;;;;;;;;;;
2021/04/09 07:14:06;;;;;;;;;;;;;;;;;;;;;
2021/04/09 07:17:08;;;;;;;;;;;;;;;;;;;;;
2021/04/09 07:20:15;;;;;;;24.42;6.20;;;6.90;99.90;;;;;;5839892;24;20102;-93
2021/04/09 07:27:19;;;;;;;49.15;9.43;;;7.10;99.90;;;;;;5858272;24;20027;-94
2021/04/09 07:30:35;;;;;;;25.73;7.75;;;7.20;99.90;;;;;;5832408;24;20515;-94
2021/04/09 07:34:32;;;;;;;;;;;;;;;;;;;;;
2021/04/09 07:37:24;;;;;;;;;;;;;;;;;;;;;
2021/04/09 07:40:29;;;;;;;;;;;;;;;;;;;;;
2021/04/09 07:43:31;;;;;;;;;;;;;;;;;;;;;
2021/04/09 07:46:37;;;;;;;13.23;7.32;;;7.80;99.90;;;;;;5745157;24;20058;-94
2021/04/09 07:49:51;;;;;;;;;;;;;;;;;;;;;
2021/04/09 07:52:54;;;;;;;8.23;6.50;;;7.90;99.90;;;;;;5736963;24;20050;-93
2021/04/09 07:55:29;;;;;;;8.52;6.10;;;8.00;99.90;;;;;;5728305;24;20024;-94
2021/04/09 07:58:21;;;;;;;;;;;;;;;;;;;;;
2021/04/09 08:01:26;;;;;;;;;;;;;;;;;;;;;
2021/04/09 08:04:17;;;;;;;12.68;6.95;;;8.20;99.90;;;;;;5735692;24;20032;-93
2021/04/09 08:07:08;;;;;;;10.55;6.35;;;8.30;99.90;;;;;;5871115;24;20495;-93
2021/04/09 08:10:01;;;;;;;20.02;6.97;;;8.40;99.90;;;;;;5841392;24;20022;-94
2021/04/09 08:12:55;;;;;;;12.57;6.30;;;8.40;99.90;;;;;;5856142;23;20023;-93
2021/04/09 08:15:35;;;;;;;12.00;5.95;;;8.50;99.90;;;;;;6015639;23;20189;-94
2021/04/09 08:18:46;;;;;;;;;;;;;;;;;;;;;
2021/04/09 08:21:42;;;;;;;12.65;6.30;;;8.80;99.90;;;;;;6073437;23;20021;-94
2021/04/09 08:24:42;;;;;;;;;;;;;;;;;;;;;
2021/04/09 08:27:40;;;;;;;11.75;6.90;;;9.00;99.90;;;;;;6109908;23;20450;-94
2021/04/09 08:30:42;;;;;;;;;;;;;;;;;;;;;
2021/04/09 08:33:34;;;;;;;;;;;;;;;;;;;;;
2021/04/09 08:36:39;;;;;;;;;;;;;;;;;;;;;
2021/04/09 08:39:54;;;;;;;9.82;5.88;;;9.50;99.90;;;;;;5870068;23;20104;-93
2021/04/09 08:42:52;;;;;;;7.05;6.13;;;9.60;99.90;;;;;;5873125;24;20026;-93
2021/04/09 08:45:43;;;;;;;9.77;6.20;;;9.80;99.90;;;;;;5844445;24;20484;-94
2021/04/09 08:48:43;;;;;;;9.27;6.15;;;9.90;99.70;;;;;;5835902;24;20364;-94
2021/04/09 08:55:35;;;;;;;10.32;6.28;;;10.20;99.10;;;;;;5710188;24;20045;-94
2021/04/09 08:59:11;;;;;;;11.93;6.03;;;10.30;98.80;;;;;;5674473;24;20032;-93
2021/04/09 09:02:31;;;;;;;;;;;;;;;;;;;;;
2021/04/09 09:05:30;;;;;;;;;;;;;;;;;;;;;
2021/04/09 09:08:04;;;;;;;;;;;10.80;98.00;;;;;;5680211;24;20476;-93
2021/04/09 09:11:08;;;;;;;8.10;4.90;;;10.90;97.60;;;;;;5757644;24;20318;-93
2021/04/09 09:13:51;;;;;;;6.68;4.00;;;11.10;97.80;;;;;;5817990;24;20079;-93
2021/04/09 09:16:24;;;;;;;6.65;4.57;;;11.20;97.40;;;;;;5850778;24;20021;-93
2021/04/09 09:18:56;;;;;;;8.40;4.20;;;11.30;97.20;;;;;;5968627;23;20019;-93
2021/04/09 09:21:34;;;;;;;10.27;4.85;;;11.50;96.90;;;;;;5941914;23;20025;-93
2021/04/09 09:24:26;;;;;;;5.90;4.90;;;11.60;96.50;;;;;;5980395;23;20075;-93
2021/04/09 09:27:19;;;;;;;6.80;3.70;;;11.70;96.50;;;;;;5847099;24;20056;-93
2021/04/09 09:30:20;;;;;;;7.75;3.67;;;11.90;96.20;;;;;;5905988;24;20017;-93
2021/04/09 09:33:16;;;;;;;6.45;3.70;;;12.00;95.90;;;;;;5986801;23;20022;-93
2021/04/09 09:36:28;;;;;;;7.63;3.72;;;12.10;95.70;;;;;;5951931;23;20015;-93
2021/04/09 09:39:31;;;;;;;6.88;3.53;;;12.40;95.40;;;;;;5843614;24;20389;-91
2021/04/09 09:42:14;;;;;;;6.93;3.97;;;12.50;95.20;;;;;;5870652;24;20104;-93
2021/04/09 09:45:19;;;;;;;7.40;3.42;;;12.60;95.30;;;;;;5872345;24;20070;-92
2021/04/09 09:51:29;;;;;;;6.00;3.30;;;12.90;94.70;;;;;;5773234;24;20019;-93
2021/04/09 09:54:28;;;;;;;8.25;3.67;;;13.00;94.70;;;;;;5765997;24;20058;-93
2021/04/09 10:00:31;;;;;;;6.10;3.58;;;13.10;94.10;;;;;;5765213;24;20027;-94
2021/04/09 10:03:35;;;;;;;7.67;3.13;;;13.10;93.80;;;;;;5813337;24;20628;-93
2021/04/09 10:06:14;;;;;;;7.78;3.67;;;13.10;93.80;;;;;;5837129;24;20465;-93
2021/04/09 10:08:59;;;;;;;6.47;2.92;;;13.20;93.90;;;;;;5870348;24;20077;-93
2021/04/09 10:11:51;;;;;;;6.63;3.08;;;13.30;93.80;;;;;;5846788;24;20026;-93
2021/04/09 10:14:19;;;;;;;6.03;3.10;;;13.40;93.50;;;;;;5926716;23;20530;-93
2021/04/09 10:17:17;;;;;;;7.25;3.30;;;13.50;93.50;;;;;;6096026;23;20114;-91
2021/04/09 10:20:11;;;;;;;10.40;3.10;;;13.50;93.10;;;;;;6105391;23;20018;-93
2021/04/09 10:23:01;;;;;;;7.18;3.15;;;13.60;92.70;;;;;;6079880;23;20029;-92
2021/04/09 10:25:35;;;;;;;5.13;2.97;;;13.70;92.80;;;;;;6100270;23;20025;-93
2021/04/09 10:28:27;;;;;;;7.68;3.17;;;13.70;92.70;;;;;;6080218;23;20025;-94
2021/04/09 10:31:22;;;;;;;7.95;3.25;;;13.80;92.70;;;;;;6118215;23;20022;-93
2021/04/09 10:34:10;;;;;;;8.63;3.60;;;13.90;92.20;;;;;;6114528;23;20104;-91
2021/04/09 10:36:45;;;;;;;13.38;4.20;;;13.90;92.40;;;;;;6076319;23;20048;-92
2021/04/09 10:39:23;;;;;;;7.60;3.08;;;13.90;92.30;;;;;;6115833;23;20076;-91
2021/04/09 10:41:52;;;;;;;9.80;3.80;;;13.90;92.20;;;;;;6128329;23;20010;-91
2021/04/09 10:44:51;;;;;;;7.32;3.45;;;13.90;92.00;;;;;;6127553;23;20021;-93
2021/04/09 10:47:18;;;;;;;;;;;13.90;91.50;;;;;;6062813;23;20032;-92
2021/04/09 10:50:11;;;;;;;7.63;4.10;;;13.90;92.10;;;;;;6091494;23;20300;-94
2021/04/09 11:05:40;;;;;;;;;;;;;;;;;;;;;
2021/04/09 11:09:17;;;;;;;;;;;;;;;;;;;;;
2021/04/09 11:25:37;;;;;;;8.40;4.00;;;13.50;95.40;;;;;;5087264;27;20430;-91
2021/04/09 11:28:36;;;;;;;8.50;3.92;;;13.40;96.00;;;;;;5054253;28;20347;-91
2021/04/09 11:31:15;;;;;;;;;;;;;;;;;;;;;
2021/04/09 11:33:56;;;;;;;14.88;8.27;;;13.30;96.30;;;;;;5072975;28;20082;-92
2021/04/09 11:36:47;;;;;;;11.73;6.85;;;13.20;96.60;;;;;;5064678;28;20056;-92
2021/04/09 11:39:22;;;;;;;11.82;7.38;;;13.10;97.10;;;;;;5013543;28;20118;-92
2021/04/09 11:42:04;;;;;;;12.98;7.45;;;13.00;97.50;;;;;;5084170;28;20509;-94
2021/04/09 11:45:51;;;;;;;;;;;;;;;;;;;;;
2021/04/09 11:48:45;;;;;;;13.10;6.70;;;12.80;98.50;;;;;;4960270;28;20061;-94
2021/04/09 11:51:56;;;;;;;10.98;7.18;;;12.70;99.10;;;;;;4924034;28;20046;-94
2021/04/09 11:55:27;;;;;;;;;;;;;;;;;;;;;
2021/04/09 11:58:59;;;;;;;;;;;;;;;;;;;;;
2021/04/09 12:26:19;;;;;;;8.73;4.85;;;12.40;99.90;;;;;;5854938;23;5697248;-93
2021/04/09 12:29:11;;;;;;;;;;;;;;;;;;;;;
2021/04/09 12:32:12;;;;;;;6.13;4.80;;;12.40;99.90;;;;;;6118724;23;20166;-93
2021/04/09 12:35:04;;;;;;;10.23;4.35;;;12.40;99.90;;;;;;6058192;23;20029;-93
2021/04/09 12:38:34;;;;;;;;;;;;;;;;;;;;;
2021/04/09 12:42:00;;;;;;;;;;;;;;;;;;;;;
2021/04/09 12:45:00;;;;;;;8.25;4.68;;;12.30;99.90;;;;;;5879042;23;20034;-93
2021/04/09 12:48:25;;;;;;;7.78;4.80;;;12.20;99.90;;;;;;5790372;24;20025;-93
2021/04/09 12:51:50;;;;;;;;;;;;;;;;;;;;;
2021/04/09 14:49:36;;;;;;;8.43;5.45;;;12.00;99.90;;;;;;5501180;22;15154561;-93
2021/04/09 14:52:14;;;;;;;13.57;10.23;;;12.00;99.90;;;;;;6041048;23;20026;-93
2021/04/09 14:54:55;;;;;;;33.10;15.98;;;12.00;99.90;;;;;;6110753;23;20322;-93
2021/04/09 15:00:55;;;;;;;9.35;5.63;;;12.00;99.90;;;;;;6008845;23;20128;-93
2021/04/09 15:04:09;;;;;;;7.97;5.65;;;12.10;99.90;;;;;;5886910;23;20092;-93
2021/04/09 15:06:49;;;;;;;17.50;12.48;;;12.10;99.90;;;;;;5899655;24;20027;-94
2021/04/09 15:09:49;;;;;;;12.35;6.55;;;12.10;99.90;;;;;;5825782;24;20046;-93
2021/04/09 15:12:50;;;;;;;6.78;5.18;;;12.00;99.90;;;;;;5809118;24;20095;-92
2021/04/09 15:15:45;;;;;;;9.82;5.10;;;12.10;99.90;;;;;;5819348;24;20025;-92
2021/04/09 15:18:42;;;;;;;8.18;4.80;;;12.10;99.90;;;;;;5749754;24;20042;-91
2021/04/09 15:21:40;;;;;;;11.82;6.13;;;12.10;99.90;;;;;;5785322;24;20031;-92
2021/04/09 15:24:43;;;;;;;;;;;;;;;;;;;;;
2021/04/09 15:27:01;;;;;;;;;;;12.10;99.90;;;;;;5829297;24;20029;-92
2021/04/09 15:30:42;;;;;;;15.23;7.10;;;12.10;99.90;;;;;;5805342;24;19920;-93
2021/04/09 15:33:25;;;;;;;;;;;12.00;99.90;;;;;;5764257;24;20023;-93
2021/04/09 15:36:37;;;;;;;;;;;;;;;;;;;;;
2021/04/09 15:40:25;;;;;;;;;;;;;;;;;;;;;
2021/04/09 15:43:27;;;;;;;;;;;;;;;;;;;;;
2021/04/09 15:50:23;;;;;;;14.30;11.68;;;11.70;99.90;;;;;;5801384;24;20056;-93
2021/04/09 15:53:28;;;;;;;;;;;;;;;;;;;;;
2021/04/09 15:55:59;;;;;;;13.10;9.30;;;11.60;99.90;;;;;;5805466;24;20030;-92
2021/04/09 15:58:25;;;;;;;12.05;8.65;;;11.50;99.90;;;;;;5780900;24;20067;-88
2021/04/09 16:00:58;;;;;;;11.70;8.88;;;11.50;99.90;;;;;;5770940;24;20020;-87
2021/04/09 16:03:49;;;;;;;11.38;8.63;;;11.40;99.90;;;;;;5755094;24;20138;-91
2021/04/09 16:07:05;;;;;;;11.50;9.23;;;11.40;99.90;;;;;;5726035;24;20181;-92
2021/04/09 16:09:31;;;;;;;16.23;9.18;;;11.40;99.90;;;;;;5828183;24;20038;-89
2021/04/09 16:12:02;;;;;;;12.43;10.23;;;11.30;99.90;;;;;;5842837;24;20118;-91
2021/04/09 16:14:29;;;;;;;;;;;11.20;99.90;;;;;;5807834;24;20034;-90
2021/04/09 16:16:55;;;;;;;11.90;9.15;;;11.10;99.90;;;;;;5840830;24;19973;-90
2021/04/09 16:19:23;;;;;;;18.48;10.82;;;11.00;99.90;;;;;;5840850;24;20355;-90
2021/04/09 16:21:50;;;;;;;15.63;10.95;;;11.00;99.90;;;;;;5840425;24;20082;-90
2021/04/09 16:24:17;;;;;;;10.90;9.75;;;11.00;99.90;;;;;;5856985;24;20018;-89
2021/04/09 16:26:43;;;;;;;12.73;10.50;;;10.90;99.90;;;;;;5957873;23;20043;-89
2021/04/09 16:29:11;;;;;;;13.65;10.43;;;11.00;99.90;;;;;;6093188;23;20025;-90
2021/04/09 16:31:42;;;;;;;12.63;10.05;;;10.90;99.90;;;;;;6143238;23;20017;-89
2021/04/09 16:34:12;;;;;;;15.68;11.65;;;10.90;99.90;;;;;;6110522;23;20021;-92
2021/04/09 16:36:43;;;;;;;14.50;11.45;;;10.90;99.90;;;;;;6144707;23;20029;-90
2021/04/09 16:39:12;;;;;;;15.43;11.98;;;10.90;99.90;;;;;;6103414;23;20033;-90
2021/04/09 16:41:45;;;;;;;18.20;10.95;;;10.90;99.90;;;;;;6152047;23;20032;-89
2021/04/09 16:44:12;;;;;;;17.25;13.05;;;10.80;99.90;;;;;;6151105;23;20057;-88
2021/04/09 16:46:43;;;;;;;11.52;9.98;;;10.80;99.90;;;;;;6152138;23;20508;-88
2021/04/09 16:49:10;;;;;;;13.13;11.27;;;10.80;99.90;;;;;;6150196;23;20029;-90
2021/04/09 16:51:42;;;;;;;12.05;9.93;;;10.80;99.90;;;;;;6141801;23;20021;-89
2021/04/09 16:54:09;;;;;;;51.25;32.15;;;10.80;99.90;;;;;;6138225;23;20022;-88
2021/04/09 16:56:35;;;;;;;24.40;19.20;;;10.70;99.90;;;;;;6152207;23;20053;-89
2021/04/09 16:59:02;;;;;;;22.10;18.58;;;10.70;99.90;;;;;;6151875;23;20021;-90
2021/04/09 17:01:30;;;;;;;22.27;20.13;;;10.70;99.90;;;;;;6154288;23;20040;-88
2021/04/09 17:03:59;;;;;;;22.10;20.00;;;10.70;99.90;;;;;;6150332;23;20085;-89
2021/04/09 17:06:27;;;;;;;12.63;10.00;;;10.70;99.90;;;;;;6152837;23;20025;-89
2021/04/09 17:08:54;;;;;;;12.70;11.10;;;10.60;99.90;;;;;;6152964;23;20009;-89
2021/04/09 17:11:20;;;;;;;12.75;10.52;;;10.50;99.90;;;;;;6161625;23;20013;-89
2021/04/09 17:13:47;;;;;;;14.02;10.15;;;10.50;99.90;;;;;;6149830;23;20041;-90
2021/04/09 17:16:14;;;;;;;14.32;12.82;;;10.50;99.90;;;;;;6149817;23;20334;-90
2021/04/09 17:18:46;;;;;;;19.02;11.70;;;10.50;99.90;;;;;;6150631;23;20041;-90
2021/04/09 17:21:14;;;;;;;15.38;11.27;;;10.40;99.90;;;;;;6139228;23;20029;-90
2021/04/09 17:23:51;;;;;;;12.82;10.30;;;10.40;99.90;;;;;;6129031;23;20108;-89
2021/04/09 17:26:18;;;;;;;15.00;9.45;;;10.40;99.90;;;;;;6149592;23;20334;-90
2021/04/09 17:28:45;;;;;;;12.43;9.23;;;10.40;99.90;;;;;;6149939;23;20080;-89
2021/04/09 17:31:11;;;;;;;12.43;9.52;;;10.30;99.90;;;;;;6149849;23;20017;-90
2021/04/09 17:33:38;;;;;;;12.00;10.73;;;10.30;99.90;;;;;;6147594;23;20021;-89
2021/04/09 17:36:07;;;;;;;;;;;10.30;99.90;;;;;;6149720;23;20023;-89
2021/04/09 17:38:34;;;;;;;14.32;10.48;;;10.20;99.90;;;;;;6149207;23;20315;-90
2021/04/09 17:41:02;;;;;;;12.88;10.07;;;10.20;99.90;;;;;;6116516;23;20033;-90
2021/04/09 17:43:31;;;;;;;13.23;11.77;;;10.20;99.90;;;;;;6135874;23;20091;-89
2021/04/09 17:45:57;;;;;;;13.25;10.65;;;10.20;99.90;;;;;;6148122;23;20151;-90
2021/04/09 17:48:26;;;;;;;12.93;10.98;;;10.20;99.90;;;;;;6135634;23;20029;-89
2021/04/09 17:50:53;;;;;;;12.57;10.32;;;10.20;99.90;;;;;;6150267;23;20023;-89
2021/04/09 17:53:21;;;;;;;14.02;9.80;;;10.10;99.90;;;;;;6149916;23;20017;-90
2021/04/09 17:55:48;;;;;;;13.15;9.52;;;10.10;99.90;;;;;;6152512;23;20041;-90
2021/04/09 17:58:15;;;;;;;11.02;9.90;;;10.10;99.90;;;;;;6135146;23;20092;-89
2021/04/09 18:00:43;;;;;;;11.10;9.68;;;10.00;99.90;;;;;;6150775;23;20060;-91
2021/04/09 18:03:17;;;;;;;11.00;9.57;;;10.00;99.90;;;;;;6149257;23;20464;-90
2021/04/09 18:05:45;;;;;;;10.30;8.27;;;10.00;99.90;;;;;;6150053;23;20025;-90
2021/04/09 18:08:15;;;;;;;11.98;9.70;;;9.90;99.90;;;;;;6146415;23;20079;-90
2021/04/09 18:10:46;;;;;;;12.00;9.13;;;9.90;99.90;;;;;;6150560;23;20025;-91
2021/04/09 18:13:13;;;;;;;11.73;7.55;;;9.90;99.90;;;;;;6134675;23;20017;-89
2021/04/09 18:15:41;;;;;;;12.30;7.72;;;9.80;99.90;;;;;;6151857;23;20314;-90
2021/04/09 18:18:09;;;;;;;9.65;7.47;;;9.80;99.90;;;;;;6150817;23;20017;-90
2021/04/09 18:20:40;;;;;;;11.88;7.00;;;9.70;99.90;;;;;;6154696;23;20021;-90
2021/04/09 18:23:08;;;;;;;11.30;7.65;;;9.60;99.90;;;;;;6168808;23;20013;-89
2021/04/09 18:25:34;;;;;;;12.52;7.78;;;9.50;99.90;;;;;;6159676;23;20056;-89
2021/04/09 18:28:08;;;;;;;12.95;8.13;;;9.40;99.90;;;;;;6151729;23;20030;-89
2021/04/09 18:30:38;;;;;;;13.38;8.15;;;9.40;99.90;;;;;;6116807;23;20116;-90
2021/04/09 18:33:05;;;;;;;12.57;7.65;;;9.30;99.90;;;;;;6148308;23;20075;-90
2021/04/09 18:35:37;;;;;;;11.43;8.23;;;9.30;99.90;;;;;;6147761;23;20040;-89
2021/04/09 18:38:03;;;;;;;10.48;7.60;;;9.20;99.90;;;;;;6150450;23;20453;-89
2021/04/09 18:40:40;;;;;;;11.02;8.20;;;9.20;99.90;;;;;;6150913;23;20026;-89
2021/04/09 18:43:07;;;;;;;13.00;9.40;;;9.20;99.90;;;;;;6137870;23;20771;-88
2021/04/09 18:45:37;;;;;;;12.38;9.00;;;9.10;99.90;;;;;;6128039;23;20021;-90
2021/04/09 18:48:04;;;;;;;15.13;9.77;;;9.10;99.90;;;;;;6150245;23;20104;-90
2021/04/09 18:50:32;;;;;;;11.88;10.15;;;9.10;99.90;;;;;;6149742;23;20097;-89
2021/04/09 18:52:59;;;;;;;11.85;9.43;;;9.10;99.90;;;;;;6137698;23;20025;-90
2021/04/09 18:55:30;;;;;;;13.82;10.57;;;9.10;99.90;;;;;;6123449;23;20024;-90
2021/04/09 18:57:57;;;;;;;11.93;9.52;;;9.10;99.90;;;;;;6149925;23;20101;-89
2021/04/09 19:00:25;;;;;;;14.10;9.70;;;9.00;99.90;;;;;;6148758;23;20666;-88
2021/04/09 19:02:53;;;;;;;15.00;9.95;;;9.00;99.90;;;;;;6150417;23;20033;-89
2021/04/09 19:05:20;;;;;;;19.48;10.80;;;9.00;99.90;;;;;;6148153;23;20018;-89
2021/04/09 19:07:46;;;;;;;16.05;10.48;;;9.00;99.90;;;;;;6149410;23;20359;-88
2021/04/09 19:10:14;;;;;;;15.00;10.00;;;9.00;99.90;;;;;;6146813;23;20022;-88
2021/04/09 19:12:41;;;;;;;15.43;11.00;;;9.00;99.90;;;;;;6149397;23;20525;-89
2021/04/09 19:15:08;;;;;;;16.30;11.52;;;9.00;99.90;;;;;;6148961;23;20049;-89
2021/04/09 19:17:34;;;;;;;12.25;10.88;;;9.00;99.90;;;;;;6151280;23;20076;-89
2021/04/09 19:20:04;;;;;;;16.00;11.07;;;8.90;99.90;;;;;;6150665;23;20474;-89
2021/04/09 19:22:32;;;;;;;14.73;10.80;;;8.90;99.90;;;;;;6150958;23;20013;-89
2021/04/09 19:25:19;;;;;;;15.40;11.05;;;8.90;99.90;;;;;;6152303;23;20096;-89
2021/04/09 19:27:47;;;;;;;17.17;11.02;;;8.90;99.90;;;;;;6152001;23;20389;-89
2021/04/09 19:30:18;;;;;;;14.45;10.18;;;8.90;99.90;;;;;;6137642;23;20326;-89
2021/04/09 19:32:47;;;;;;;14.52;9.63;;;8.90;99.90;;;;;;6150972;23;20021;-89
2021/04/09 19:35:15;;;;;;;;;;;8.80;99.90;;;;;;6159927;23;20029;-89
2021/04/09 19:37:42;;;;;;;14.38;9.98;;;8.80;99.90;;;;;;6167125;23;19916;-88
2021/04/09 19:40:10;;;;;;;12.93;10.93;;;8.80;99.90;;;;;;6148231;23;20026;-89
2021/04/09 19:42:39;;;;;;;;;;;8.80;99.90;;;;;;6151153;23;20013;-89
2021/04/09 19:45:07;;;;;;;14.27;10.30;;;8.80;99.90;;;;;;6150781;23;19926;-89
2021/04/09 19:47:37;;;;;;;12.77;10.73;;;8.70;99.90;;;;;;6150672;23;20029;-88
2021/04/09 19:50:06;;;;;;;14.40;10.57;;;8.70;99.90;;;;;;6151887;23;20024;-88
2021/04/09 19:52:34;;;;;;;16.85;10.30;;;8.70;99.90;;;;;;6150036;23;20013;-88
2021/04/09 19:55:03;;;;;;;17.38;10.88;;;8.70;99.90;;;;;;6150914;23;20071;-89
2021/04/09 19:57:30;;;;;;;16.90;10.82;;;8.70;99.90;;;;;;6148616;23;20021;-88
2021/04/09 19:59:57;;;;;;;13.88;9.80;;;8.70;99.90;;;;;;6151357;23;20021;-89
2021/04/09 20:02:24;;;;;;;16.50;10.45;;;8.70;99.90;;;;;;6135660;23;20140;-88
2021/04/09 20:04:50;;;;;;;12.95;10.38;;;8.60;99.90;;;;;;6149074;23;20063;-89
2021/04/09 20:07:18;;;;;;;16.58;10.63;;;8.60;99.90;;;;;;6149547;23;20041;-90
2021/04/09 20:09:46;;;;;;;17.58;11.18;;;8.60;99.90;;;;;;6150340;23;20385;-90
2021/04/09 20:12:13;;;;;;;13.60;10.88;;;8.60;99.90;;;;;;6150975;23;20021;-89
2021/04/09 20:14:40;;;;;;;16.30;12.15;;;8.60;99.90;;;;;;6151745;23;20746;-89
2021/04/09 20:17:10;;;;;;;14.20;12.05;;;8.60;99.90;;;;;;6138886;23;20025;-88
2021/04/09 20:19:38;;;;;;;16.52;11.70;;;8.60;99.90;;;;;;6150976;23;20104;-89
2021/04/09 20:22:04;;;;;;;19.13;13.00;;;8.50;99.90;;;;;;6150408;23;20276;-89
2021/04/09 20:24:31;;;;;;;13.52;11.30;;;8.50;99.90;;;;;;6152999;23;20021;-90
2021/04/09 20:26:58;;;;;;;15.40;11.88;;;8.50;99.90;;;;;;6153413;23;20036;-89
2021/04/09 20:29:25;;;;;;;15.73;12.55;;;8.50;99.90;;;;;;6150591;23;20032;-88
2021/04/09 20:31:51;;;;;;;15.80;12.10;;;8.50;99.90;;;;;;6128423;23;20022;-90
2021/04/09 20:34:21;;;;;;;14.52;11.25;;;8.50;99.90;;;;;;6151498;23;20021;-90
2021/04/09 20:36:50;;;;;;;14.38;12.15;;;8.50;99.90;;;;;;6138549;23;20144;-90
2021/04/09 20:39:17;;;;;;;16.35;11.95;;;8.50;99.90;;;;;;6149258;23;20437;-91
2021/04/09 20:41:44;;;;;;;16.70;13.68;;;8.40;99.90;;;;;;6149463;23;20013;-89
2021/04/09 20:44:11;;;;;;;22.92;11.73;;;8.40;99.90;;;;;;6148942;23;20126;-90
2021/04/09 20:46:37;;;;;;;15.65;12.38;;;8.40;99.90;;;;;;6153763;23;20124;-90
2021/04/09 20:49:04;;;;;;;18.00;12.35;;;8.40;99.90;;;;;;6145399;23;20081;-90
2021/04/09 20:51:34;;;;;;;16.02;12.13;;;8.40;99.90;;;;;;6146318;23;20080;-90
2021/04/09 20:54:03;;;;;;;15.57;11.57;;;8.40;99.90;;;;;;6151205;23;20017;-91
2021/04/09 20:56:37;;;;;;;19.48;12.10;;;8.40;99.90;;;;;;6101707;23;20640;-90
2021/04/09 20:59:03;;;;;;;16.70;11.88;;;8.40;99.90;;;;;;6135324;23;20017;-88
2021/04/09 21:01:31;;;;;;;19.08;11.90;;;8.40;99.90;;;;;;6147480;23;20014;-90
2021/04/09 21:04:00;;;;;;;14.73;12.45;;;8.40;99.90;;;;;;6149888;23;20017;-90
2021/04/09 21:06:27;;;;;;;14.90;12.00;;;8.40;99.90;;;;;;6151153;23;20036;-90
2021/04/09 21:08:59;;;;;;;17.63;12.38;;;8.30;99.90;;;;;;6149817;23;20371;-90
2021/04/09 21:11:27;;;;;;;15.48;11.63;;;8.30;99.90;;;;;;6148888;23;20048;-89
2021/04/09 21:13:56;;;;;;;20.05;12.05;;;8.30;99.90;;;;;;6136957;23;20023;-91
2021/04/09 21:16:22;;;;;;;16.90;12.07;;;8.30;99.90;;;;;;6153199;23;20453;-90
2021/04/09 21:18:49;;;;;;;22.52;12.43;;;8.30;99.90;;;;;;6151191;23;20033;-90
2021/04/09 21:21:15;;;;;;;17.80;12.55;;;8.30;99.90;;;;;;6150948;23;20022;-90
2021/04/09 21:23:48;;;;;;;17.73;12.55;;;8.30;99.90;;;;;;6138051;23;20076;-92
2021/04/09 21:26:17;;;;;;;19.83;12.45;;;8.30;99.90;;;;;;6138084;23;20101;-91
2021/04/09 21:28:53;;;;;;;20.58;12.43;;;8.30;99.90;;;;;;6151140;23;20033;-91
2021/04/09 21:31:26;;;;;;;18.55;12.27;;;8.30;99.90;;;;;;6135378;23;20041;-92
2021/04/09 21:33:53;;;;;;;17.98;12.15;;;8.30;99.90;;;;;;6150117;23;20030;-91
2021/04/09 21:36:22;;;;;;;16.67;13.52;;;8.30;99.90;;;;;;6137456;23;20018;-92
2021/04/09 21:38:59;;;;;;;;;;;;;;;;;;;;;
2021/04/09 21:41:34;;;;;;;18.58;12.52;;;8.30;99.90;;;;;;6134823;23;20390;-92
2021/04/09 21:44:10;;;;;;;14.75;12.38;;;8.30;99.90;;;;;;6152141;23;20025;-92
2021/04/09 21:46:38;;;;;;;17.73;13.13;;;8.30;99.90;;;;;;6130677;23;20321;-90
2021/04/09 21:49:08;;;;;;;17.25;13.15;;;8.30;99.90;;;;;;6150376;23;20525;-91
2021/04/09 21:51:41;;;;;;;15.07;12.77;;;8.30;99.90;;;;;;6151857;23;20017;-90
2021/04/09 21:54:10;;;;;;;19.90;14.15;;;8.30;99.90;;;;;;6138249;23;20030;-91
2021/04/09 21:56:38;;;;;;;15.13;12.98;;;8.30;99.90;;;;;;6151839;23;20022;-91
2021/04/09 21:59:07;;;;;;;14.02;12.57;;;8.30;99.90;;;;;;6150967;23;20029;-92
2021/04/09 22:01:38;;;;;;;16.80;12.68;;;8.30;99.90;;;;;;6143120;23;20009;-91
2021/04/09 22:04:33;;;;;;;17.95;13.10;;;8.30;99.90;;;;;;6162702;23;20707;-92
2021/04/09 22:07:04;;;;;;;16.30;12.73;;;8.30;99.90;;;;;;6155897;23;20013;-90
2021/04/09 22:09:36;;;;;;;15.18;12.50;;;8.30;99.90;;;;;;6144646;23;20017;-90
2021/04/09 22:12:08;;;;;;;14.93;12.02;;;8.20;99.90;;;;;;6144018;23;20441;-91
2021/04/09 22:14:40;;;;;;;17.88;13.10;;;8.20;99.90;;;;;;6153628;23;20021;-90
2021/04/09 22:17:08;;;;;;;13.00;11.65;;;8.20;99.90;;;;;;6152598;23;20021;-90
2021/04/09 22:19:40;;;;;;;13.60;12.13;;;8.20;99.90;;;;;;6153979;23;20026;-89